Time;durP1;ratioP1;P1;durP2;ratioP2;P2;SDS_P1;SDS_P2;PMS_P1;PMS_P2;Temp;Humidity;BMP_temperature;BMP_pressure;BME280_temperature;BME280_humidity;BME280_pressure;Samples;Min_cycle;Max_cycle;Signal;HPM_P1;HPM_P2
2021/12/10 00:02:00;;;;;;;8.28;3.67;;;;;;;9.41;70.77;101947.59;1902661;74;21486;-61
2021/12/10 00:04:32;;;;;;;3.17;1.92;;;;;;;9.41;70.73;101954.17;1902114;74;21059;-62
2021/12/10 00:07:09;;;;;;;4.33;2.47;;;;;;;9.41;70.76;101960.75;1902668;75;21484;-63
2021/12/10 00:09:47;;;;;;;4.33;2.80;;;;;;;9.41;70.76;101958.98;1902473;75;21130;-62
2021/12/10 00:12:19;;;;;;;5.03;2.67;;;;;;;9.42;70.78;101951.95;1902523;75;21540;-63
2021/12/10 00:14:49;;;;;;;5.22;2.42;;;;;;;9.43;70.71;101958.95;1901733;75;21446;-63
2021/12/10 00:17:20;;;;;;;5.83;2.30;;;;;;;9.43;70.73;101955.02;1902555;75;21035;-64
2021/12/10 00:19:53;;;;;;;4.35;2.22;;;;;;;9.42;70.71;101954.58;1902501;74;21117;-64
2021/12/10 00:22:25;;;;;;;4.20;2.65;;;;;;;9.43;70.71;101954.56;1902669;74;21122;-63
2021/12/10 00:24:55;;;;;;;4.28;2.58;;;;;;;9.42;70.65;101958.52;1902539;75;21164;-63
2021/12/10 00:27:29;;;;;;;4.87;2.92;;;;;;;9.41;70.62;101956.34;1902711;75;21121;-63
2021/12/10 00:30:06;;;;;;;4.53;2.70;;;;;;;9.41;70.63;101959.43;1902688;75;21182;-63
2021/12/10 00:32:34;;;;;;;3.60;2.70;;;;;;;9.39;70.58;101953.33;1902004;75;21110;-63
2021/12/10 00:35:04;;;;;;;5.35;3.00;;;;;;;9.39;70.48;101957.27;1902418;75;21121;-63
2021/12/10 00:37:32;;;;;;;6.40;3.25;;;;;;;9.39;70.39;101952.02;1902839;74;21458;-62
2021/12/10 00:40:04;;;;;;;6.45;3.47;;;;;;;9.39;70.35;101956.82;1902599;74;21541;-62
2021/12/10 00:42:35;;;;;;;5.40;3.47;;;;;;;9.39;70.32;101953.33;1902597;74;21487;-62
2021/12/10 00:45:06;;;;;;;6.78;3.67;;;;;;;9.39;70.27;101952.88;1902637;75;21109;-62
2021/12/10 00:47:35;;;;;;;7.90;4.00;;;;;;;9.37;70.29;101952.45;1902604;74;21154;-62
2021/12/10 00:50:07;;;;;;;8.70;4.15;;;;;;;9.37;70.28;101949.83;1902558;75;21551;-62
2021/12/10 00:52:36;;;;;;;8.05;3.77;;;;;;;9.40;70.26;101952.42;1902526;75;21182;-62
2021/12/10 00:55:07;;;;;;;10.95;4.60;;;;;;;9.40;70.24;101948.48;1902555;75;21143;-62
2021/12/10 00:57:36;;;;;;;8.38;3.42;;;;;;;9.41;70.21;101948.91;1902422;75;21087;-62
2021/12/10 01:00:08;;;;;;;7.45;3.65;;;;;;;9.43;70.25;101947.98;1902476;74;21716;-62
2021/12/10 01:02:37;;;;;;;6.00;3.30;;;;;;;9.44;70.20;101954.11;1902627;74;21494;-62
2021/12/10 01:05:07;;;;;;;8.30;2.60;;;;;;;9.43;70.21;101949.76;1902535;75;21541;-62
2021/12/10 01:07:56;;;;;;;3.45;1.98;;;;;;;9.42;70.22;101947.55;1902648;74;21075;-62
2021/12/10 01:10:28;;;;;;;5.35;2.95;;;;;;;9.43;70.27;101949.30;1908383;75;21084;-63
2021/12/10 01:12:59;;;;;;;3.30;1.95;;;;;;;9.46;70.20;101957.16;1908320;75;21503;-62
2021/12/10 01:16:06;;;;;;;5.83;3.02;;;;;;;9.48;70.18;101950.56;1908301;75;20987;-62
2021/12/10 01:23:56;;;;;;;5.25;2.83;;;;;;;9.52;70.00;101949.62;1867773;75;21117;-62
2021/12/10 01:26:55;;;;;;;5.17;3.10;;;;;;;9.51;69.97;101949.18;1908602;75;21097;-61
2021/12/10 01:29:10;;;;;;;6.28;3.05;;;;;;;9.52;69.98;101955.33;1904340;75;21136;-62
2021/12/10 01:31:39;;;;;;;5.90;3.85;;;;;;;9.52;69.98;101952.70;1908288;74;21014;-61
2021/12/10 01:34:09;;;;;;;6.15;3.92;;;;;;;9.51;69.94;101953.13;1908535;74;21478;-61
2021/12/10 01:36:39;;;;;;;10.03;5.05;;;;;;;9.53;69.87;101957.91;1908314;75;21027;-61
2021/12/10 01:39:11;;;;;;;7.40;3.98;;;;;;;9.53;69.78;101953.97;1908222;75;21062;-61
2021/12/10 01:41:40;;;;;;;7.15;3.47;;;;;;;9.54;69.74;101961.43;1908383;75;20991;-61
2021/12/10 01:44:26;;;;;;;5.47;2.33;;;;;;;9.54;69.71;101960.98;1908415;75;20986;-61
2021/12/10 01:46:48;;;;;;;14.60;4.47;;;;;;;9.54;69.72;101953.55;1908227;75;21026;-61
2021/12/10 01:49:17;;;;;;;7.90;3.80;;;;;;;9.53;69.77;101953.97;1908308;75;21080;-61
2021/12/10 01:51:47;;;;;;;4.33;2.27;;;;;;;9.55;69.77;101960.52;1908397;75;21011;-61
2021/12/10 01:54:20;;;;;;;6.80;2.85;;;;;;;9.54;69.78;101951.77;1908309;74;21035;-60
2021/12/10 01:56:51;;;;;;;5.75;2.70;;;;;;;9.54;69.77;101951.77;1908433;75;21011;-61
2021/12/10 01:59:20;;;;;;;3.95;2.47;;;;;;;9.54;69.74;101949.14;1908296;75;20979;-62
2021/12/10 02:01:52;;;;;;;3.25;2.00;;;;;;;9.53;69.77;101955.28;1908272;75;21519;-62
2021/12/10 02:04:23;;;;;;;3.42;1.75;;;;;;;9.55;69.71;101960.52;1908269;75;21062;-62
2021/12/10 02:06:53;;;;;;;2.87;1.37;;;;;;;9.59;69.65;101958.26;1890551;75;21070;-59
2021/12/10 02:09:22;;;;;;;4.80;1.95;;;;;;;9.62;69.63;101953.83;1876016;75;21120;-59
2021/12/10 02:11:52;;;;;;;3.25;2.00;;;;;;;9.68;69.53;101952.00;1876077;76;21087;-59
2021/12/10 02:14:22;;;;;;;4.28;1.80;;;;;;;9.73;69.41;101959.37;1875978;76;20993;-61
2021/12/10 02:16:52;;;;;;;6.42;1.87;;;;;;;9.77;69.32;101962.37;1876063;75;21084;-60
2021/12/10 02:19:21;;;;;;;4.55;2.50;;;;;;;9.79;69.27;101969.78;1875941;75;21018;-61
2021/12/10 02:21:50;;;;;;;5.53;2.80;;;;;;;9.79;69.21;101963.21;1875973;76;21021;-61
2021/12/10 02:24:20;;;;;;;4.42;2.75;;;;;;;9.80;69.15;101962.33;1876086;76;21022;-60
2021/12/10 02:26:58;;;;;;;5.28;2.80;;;;;;;9.78;69.07;101958.86;1875997;76;21107;-61
2021/12/10 02:29:30;;;;;;;4.10;1.90;;;;;;;9.76;69.11;101953.62;1875935;76;21194;-61
2021/12/10 02:31:59;;;;;;;4.55;1.70;;;;;;;9.78;69.18;101956.23;1875969;76;21045;-60
2021/12/10 02:34:29;;;;;;;4.42;2.42;;;;;;;9.80;69.16;101953.13;1875999;76;21508;-61
2021/12/10 02:36:58;;;;;;;3.10;1.55;;;;;;;9.82;69.08;101946.93;1875976;76;21057;-60
2021/12/10 02:39:28;;;;;;;4.67;2.37;;;;;;;9.82;69.07;101950.02;1875995;76;21006;-61
2021/12/10 02:41:57;;;;;;;5.90;2.30;;;;;;;9.82;69.05;101956.14;1876089;76;21107;-61
2021/12/10 02:44:29;;;;;;;6.67;2.40;;;;;;;9.81;69.05;101955.73;1876003;76;21428;-61
2021/12/10 02:46:58;;;;;;;5.85;2.27;;;;;;;9.82;69.01;101963.17;1875953;76;21037;-61
2021/12/10 02:49:28;;;;;;;6.78;2.60;;;;;;;9.83;69.03;101964.89;1876054;76;21056;-61
2021/12/10 02:51:57;;;;;;;6.53;2.00;;;;;;;9.84;68.97;101967.95;1876020;76;21013;-62
2021/12/10 02:54:34;;;;;;;4.70;2.10;;;;;;;9.83;68.88;101968.41;1875980;76;20997;-61
2021/12/10 02:57:08;;;;;;;6.50;2.52;;;;;;;9.84;68.86;101971.91;1876016;76;21037;-61
2021/12/10 02:59:38;;;;;;;6.62;2.45;;;;;;;9.84;68.81;101975.84;1876193;76;21135;-61
2021/12/10 03:02:10;;;;;;;7.33;2.60;;;;;;;9.83;68.85;101979.36;1875974;76;21095;-61
2021/12/10 03:04:40;;;;;;;5.62;2.70;;;;;;;9.82;68.81;101973.23;1847612;77;21081;-62
2021/12/10 03:07:13;;;;;;;8.75;4.58;;;;;;;9.82;68.81;101975.01;1876088;76;21472;-62
2021/12/10 03:09:44;;;;;;;10.38;4.05;;;;;;;9.80;68.82;101972.85;1876024;76;21021;-61
2021/12/10 03:12:15;;;;;;;11.15;4.50;;;;;;;9.78;68.94;101975.95;1875927;76;21022;-62
2021/12/10 03:14:46;;;;;;;10.53;3.00;;;;;;;9.78;68.98;101979.91;1876203;76;21075;-62
2021/12/10 03:17:18;;;;;;;12.23;3.00;;;;;;;9.77;69.03;101971.58;1876104;76;21025;-62
2021/12/10 03:19:47;;;;;;;6.35;2.10;;;;;;;9.77;69.01;101975.52;1874613;76;21152;-62
2021/12/10 03:22:16;;;;;;;2.35;1.40;;;;;;;9.77;69.01;101973.75;1876220;76;21464;-62
2021/12/10 03:24:45;;;;;;;5.67;1.92;;;;;;;9.79;68.97;101982.52;1876110;76;21405;-61
2021/12/10 03:27:15;;;;;;;8.70;2.83;;;;;;;9.79;68.97;101977.68;1876076;76;21172;-59
2021/12/10 03:29:45;;;;;;;7.03;2.85;;;;;;;9.81;68.91;101977.20;1876081;76;21088;-61
2021/12/10 03:32:17;;;;;;;6.12;2.47;;;;;;;9.81;68.86;101974.57;1876035;76;21046;-60
2021/12/10 03:34:47;;;;;;;3.75;2.17;;;;;;;9.82;68.80;101975.87;1849280;77;21054;-62
2021/12/10 03:37:18;;;;;;;8.88;2.25;;;;;;;9.81;68.79;101977.20;1876021;76;21010;-61
2021/12/10 03:39:49;;;;;;;4.53;1.80;;;;;;;9.81;68.81;101977.20;1876153;76;21022;-61
2021/12/10 03:42:20;;;;;;;2.22;1.30;;;;;;;9.82;68.76;101971.92;1875992;76;21158;-61
2021/12/10 03:44:50;;;;;;;2.90;1.60;;;;;;;9.87;68.56;101971.86;1876067;76;21018;-61
2021/12/10 03:47:18;;;;;;;2.58;1.30;;;;;;;9.88;68.34;101965.69;1876177;76;21045;-61
2021/12/10 03:49:48;;;;;;;2.02;1.32;;;;;;;9.94;68.19;101973.50;1876286;76;20997;-62
2021/12/10 03:52:17;;;;;;;4.83;1.95;;;;;;;9.98;68.03;101972.55;1876037;76;21111;-61
2021/12/10 03:54:47;;;;;;;2.83;1.30;;;;;;;10.02;67.80;101968.10;1875926;76;21045;-61
2021/12/10 03:57:15;;;;;;;6.40;1.45;;;;;;;10.04;67.79;101974.20;1876172;76;21005;-60
2021/12/10 03:59:44;;;;;;;3.90;1.77;;;;;;;10.03;67.79;101975.09;1876161;76;20986;-62
2021/12/10 04:02:13;;;;;;;5.85;2.27;;;;;;;10.00;67.81;101979.97;1876056;76;21018;-61
2021/12/10 04:04:45;;;;;;;4.28;2.90;;;;;;;9.99;67.78;101972.09;1876068;76;21506;-61
2021/12/10 04:07:17;;;;;;;7.58;2.80;;;;;;;9.95;67.82;101980.48;1864594;76;21526;-61
2021/12/10 04:09:47;;;;;;;6.08;2.67;;;;;;;9.91;67.83;101982.75;1875580;75;21010;-65
2021/12/10 04:12:17;;;;;;;10.78;3.87;;;;;;;9.86;67.89;101980.63;1875962;76;21022;-65
2021/12/10 04:14:48;;;;;;;8.23;3.83;;;;;;;9.82;67.93;101985.53;1874420;76;20999;-66
2021/12/10 04:17:19;;;;;;;5.75;2.60;;;;;;;9.75;67.99;101982.58;1874246;76;21046;-65
2021/12/10 04:19:50;;;;;;;7.55;2.70;;;;;;;9.69;68.13;101985.31;1874281;76;21053;-66
2021/12/10 04:22:21;;;;;;;8.08;2.83;;;;;;;9.59;68.31;101984.13;1875015;75;21033;-63
2021/12/10 04:24:50;;;;;;;8.40;2.90;;;;;;;9.51;68.45;101984.67;1861003;76;21100;-65
2021/12/10 04:27:19;;;;;;;5.28;2.67;;;;;;;9.44;68.58;101983.91;1823816;78;21548;-65
2021/12/10 04:29:52;;;;;;;4.42;2.15;;;;;;;9.40;68.71;101994.48;1823827;78;21545;-62
2021/12/10 04:32:18;;;;;;;7.00;2.52;;;;;;;9.36;68.92;101991.48;1867779;76;21069;-65
2021/12/10 04:34:47;;;;;;;5.67;2.87;;;;;;;9.32;68.91;101989.79;1876063;76;21079;-67
2021/12/10 04:37:16;;;;;;;5.37;2.90;;;;;;;9.27;68.91;101997.27;1876131;76;21120;-64
2021/12/10 04:39:47;;;;;;;7.83;2.58;;;;;;;9.24;68.91;101989.45;1876072;76;21420;-62
2021/12/10 04:42:25;;;;;;;5.05;2.70;;;;;;;9.20;68.96;102003.52;1876042;76;21026;-65
2021/12/10 04:44:56;;;;;;;8.98;2.72;;;;;;;9.17;69.01;102001.38;1875987;76;21018;-62
2021/12/10 04:47:26;;;;;;;4.62;2.15;;;;;;;9.14;69.00;102004.03;1876060;75;21014;-65
2021/12/10 04:49:55;;;;;;;5.15;2.80;;;;;;;9.15;69.06;101998.77;1876085;75;21092;-64
2021/12/10 04:52:25;;;;;;;10.75;3.30;;;;;;;9.17;69.13;102003.55;1875793;76;21080;-62
2021/12/10 04:54:54;;;;;;;34.38;8.88;;;;;;;9.18;69.12;102005.27;1876059;76;21476;-65
2021/12/10 04:57:23;;;;;;;22.65;7.67;;;;;;;9.20;69.02;102007.89;1876101;76;21759;-65
2021/12/10 04:59:51;;;;;;;16.27;6.55;;;;;;;9.14;68.93;102002.72;1876208;76;21025;-65
2021/12/10 05:02:21;;;;;;;19.60;5.97;;;;;;;9.08;68.92;102008.47;1876041;76;21041;-62
2021/12/10 05:04:50;;;;;;;24.32;5.62;;;;;;;9.04;68.97;102009.86;1876117;76;21592;-64
2021/12/10 05:07:19;;;;;;;18.60;5.12;;;;;;;9.00;68.99;102006.82;1876075;76;21538;-64
2021/12/10 05:09:47;;;;;;;24.95;6.00;;;;;;;8.96;69.05;102005.12;1876017;76;21108;-63
2021/12/10 05:12:17;;;;;;;22.95;4.85;;;;;;;8.94;69.08;102005.59;1862976;76;21126;-66
2021/12/10 05:14:46;;;;;;;12.45;5.08;;;;;;;8.88;69.10;101999.52;1843044;77;21028;-67
2021/12/10 05:17:15;;;;;;;20.90;8.20;;;;;;;8.98;69.11;102005.55;1843190;76;21095;-65
2021/12/10 05:19:44;;;;;;;23.57;13.18;;;;;;;9.18;68.88;102005.73;1843056;78;21558;-66
2021/12/10 05:22:13;;;;;;;17.60;9.20;;;;;;;9.40;68.56;102010.25;1856870;76;21413;-66
2021/12/10 05:24:42;;;;;;;20.90;10.32;;;;;;;9.60;68.17;102016.55;1876115;76;21542;-65
2021/12/10 05:27:12;;;;;;;19.07;8.70;;;;;;;9.64;67.90;102015.16;1875986;76;21014;-66
2021/12/10 05:29:41;;;;;;;25.75;9.00;;;;;;;9.91;67.54;102011.69;1875930;76;21530;-66
2021/12/10 05:32:11;;;;;;;42.53;8.85;;;;;;;10.31;66.92;102017.64;1876255;76;21131;-65
2021/12/10 05:34:40;;;;;;;44.45;8.28;;;;;;;10.71;66.10;102018.21;1875913;76;21068;-64
2021/12/10 05:37:10;;;;;;;34.95;7.45;;;;;;;11.09;65.34;102023.18;1875854;75;21010;-68
2021/12/10 05:39:38;;;;;;;24.10;6.58;;;;;;;11.45;64.43;102028.55;1876154;76;21029;-67
2021/12/10 05:42:07;;;;;;;35.45;8.28;;;;;;;11.89;63.54;102027.98;1876133;76;21129;-63
2021/12/10 05:44:38;;;;;;;26.27;8.98;;;;;;;12.30;62.74;102032.75;1875903;76;21050;-65
2021/12/10 05:47:08;;;;;;;22.85;7.20;;;;;;;12.66;62.04;102028.70;1876056;75;21029;-65
2021/12/10 05:49:37;;;;;;;19.85;8.23;;;;;;;12.95;61.42;102032.33;1874507;76;21464;-63
2021/12/10 05:52:06;;;;;;;17.02;7.83;;;;;;;13.26;60.66;102032.73;1843135;78;21432;-64
2021/12/10 05:54:36;;;;;;;19.05;8.15;;;;;;;13.50;59.87;102028.52;1843082;78;21029;-64
2021/12/10 05:57:06;;;;;;;20.08;7.20;;;;;;;13.87;59.12;102035.33;1843030;77;21529;-64
2021/12/10 05:59:34;;;;;;;22.10;8.15;;;;;;;14.18;58.70;102035.16;1844561;76;21025;-64
2021/12/10 06:02:04;;;;;;;22.82;7.70;;;;;;;14.44;57.86;102036.95;1875928;75;21085;-63
2021/12/10 06:04:34;;;;;;;21.48;8.18;;;;;;;14.74;57.17;102037.28;1875880;76;20985;-63
2021/12/10 06:07:05;;;;;;;22.37;8.85;;;;;;;14.95;56.59;102039.61;1875984;75;20986;-63
2021/12/10 06:09:36;;;;;;;23.15;8.80;;;;;;;15.22;55.95;102040.37;1874519;76;20986;-63
2021/12/10 06:12:05;;;;;;;20.62;8.53;;;;;;;15.53;54.57;102043.16;1878825;75;21115;-65
2021/12/10 06:14:34;;;;;;;33.33;11.25;;;;;;;15.71;54.07;102043.75;1888182;76;21045;-63
2021/12/10 06:17:03;;;;;;;27.60;10.38;;;;;;;16.05;53.88;102039.78;1888242;76;21032;-64
2021/12/10 06:19:32;;;;;;;24.65;8.13;;;;;;;16.32;53.23;102047.52;1888354;75;21063;-63
2021/12/10 06:22:01;;;;;;;16.12;6.97;;;;;;;16.55;52.60;102044.73;1888242;75;21068;-64
2021/12/10 06:24:30;;;;;;;37.80;12.82;;;;;;;16.82;52.22;102043.59;1883565;76;21212;-65
2021/12/10 06:26:58;;;;;;;26.15;9.15;;;;;;;17.00;51.67;102037.47;1854788;76;21529;-64
2021/12/10 06:29:27;;;;;;;12.55;5.53;;;;;;;17.24;50.71;102042.61;1855095;76;21106;-64
2021/12/10 06:31:57;;;;;;;11.18;6.40;;;;;;;17.41;49.65;102045.80;1854874;77;21122;-64
2021/12/10 06:34:26;;;;;;;14.58;8.50;;;;;;;17.48;48.93;102041.92;1854827;77;21513;-65
2021/12/10 06:36:55;;;;;;;11.22;5.60;;;;;;;17.57;48.25;102033.49;1862898;76;21074;-65
2021/12/10 06:39:24;;;;;;;16.62;6.05;;;;;;;17.69;47.73;102039.57;1888130;75;21041;-65
2021/12/10 06:41:54;;;;;;;12.98;6.45;;;;;;;17.77;46.89;102031.68;1888219;76;21091;-65
2021/12/10 06:44:24;;;;;;;9.90;5.33;;;;;;;17.84;46.65;102038.44;1888283;76;21033;-66
2021/12/10 06:46:53;;;;;;;13.43;5.75;;;;;;;18.12;46.81;102032.14;1888378;76;21041;-66
2021/12/10 06:49:22;;;;;;;12.13;4.53;;;;;;;18.46;46.67;102034.89;1888370;76;21041;-66
2021/12/10 06:51:51;;;;;;;14.40;5.33;;;;;;;18.81;45.89;102032.21;1888254;75;21154;-66
2021/12/10 06:54:20;;;;;;;13.00;6.37;;;;;;;19.13;45.24;102037.64;1888344;76;21076;-66
2021/12/10 06:56:50;;;;;;;12.03;5.58;;;;;;;19.21;44.41;102044.27;1888407;76;21123;-66
2021/12/10 06:59:19;;;;;;;13.68;5.55;;;;;;;19.21;43.85;102048.27;1888391;76;20998;-66
2021/12/10 07:01:49;;;;;;;15.43;6.50;;;;;;;19.46;43.59;102042.45;1888374;76;21041;-64
2021/12/10 07:04:18;;;;;;;19.67;7.10;;;;;;;19.68;43.15;102038.09;1888271;75;21452;-65
2021/12/10 07:06:48;;;;;;;21.82;6.90;;;;;;;19.74;42.86;102037.39;1888362;76;21437;-65
2021/12/10 07:09:19;;;;;;;24.67;8.80;;;;;;;19.84;42.87;102045.25;1888371;76;21021;-65
2021/12/10 07:11:49;;;;;;;17.02;5.72;;;;;;;20.21;42.63;102037.75;1888347;76;21479;-64
2021/12/10 07:14:19;;;;;;;13.28;5.58;;;;;;;20.38;41.84;102042.09;1858091;75;21045;-66
2021/12/10 07:16:49;;;;;;;15.65;5.00;;;;;;;20.64;41.49;102041.91;1843167;77;21095;-66
2021/12/10 07:19:19;;;;;;;10.10;4.33;;;;;;;21.02;41.09;102033.31;1843259;78;21049;-66
2021/12/10 07:21:48;;;;;;;10.98;5.42;;;;;;;21.46;40.80;102037.69;1843211;78;21005;-67
2021/12/10 07:24:19;;;;;;;15.85;5.35;;;;;;;21.74;39.95;102034.55;1843160;78;21019;-64
2021/12/10 07:26:49;;;;;;;13.83;5.15;;;;;;;21.91;39.44;102032.09;1843231;77;21099;-63
2021/12/10 07:29:21;;;;;;;7.58;3.45;;;;;;;22.06;39.12;102035.56;1843039;77;21471;-67
2021/12/10 07:31:49;;;;;;;14.70;4.72;;;;;;;22.28;38.88;102036.34;1843127;78;21106;-65
2021/12/10 07:34:18;;;;;;;16.10;4.87;;;;;;;22.32;38.42;102032.52;1843076;77;21577;-63
2021/12/10 07:36:47;;;;;;;10.75;3.83;;;;;;;22.66;38.23;102036.38;1843097;78;21033;-65
2021/12/10 07:39:16;;;;;;;15.05;5.35;;;;;;;22.85;37.55;102034.63;1843091;77;21557;-64
2021/12/10 07:41:45;;;;;;;14.53;5.78;;;;;;;23.04;37.05;102041.41;1843218;77;21037;-65
2021/12/10 07:44:14;;;;;;;16.25;4.45;;;;;;;23.14;36.52;102042.45;1843020;78;21526;-64
2021/12/10 07:46:43;;;;;;;8.90;3.52;;;;;;;23.32;36.38;102045.16;1843067;78;21064;-67
2021/12/10 07:49:17;;;;;;;11.95;4.65;;;;;;;23.62;36.12;102040.34;1843144;78;21510;-66
2021/12/10 07:51:49;;;;;;;9.65;4.10;;;;;;;23.72;35.50;102036.01;1843111;78;21072;-63
2021/12/10 07:54:17;;;;;;;5.70;2.30;;;;;;;23.91;35.25;102034.66;1842921;77;21009;-61
2021/12/10 07:56:46;;;;;;;5.00;2.37;;;;;;;23.94;34.54;102027.69;1843058;77;21578;-62
2021/12/10 07:59:15;;;;;;;9.95;2.70;;;;;;;23.73;34.63;102022.91;1843184;77;21033;-65
2021/12/10 08:01:44;;;;;;;4.97;2.40;;;;;;;23.28;35.17;102024.01;1843052;78;21522;-66
2021/12/10 08:04:13;;;;;;;4.97;2.58;;;;;;;23.64;34.71;102012.35;1843079;78;21472;-63
2021/12/10 08:06:42;;;;;;;5.72;2.35;;;;;;;23.82;34.07;102018.23;1843077;78;21522;-63
2021/12/10 08:09:11;;;;;;;4.80;1.95;;;;;;;24.12;33.84;102006.61;1843005;77;21155;-64
2021/12/10 08:11:40;;;;;;;4.95;1.90;;;;;;;24.42;33.29;102015.48;1843121;78;21119;-66
2021/12/10 08:14:09;;;;;;;9.70;2.80;;;;;;;24.71;33.15;102005.15;1866629;76;21033;-65
2021/12/10 08:16:39;;;;;;;4.15;2.10;;;;;;;25.10;32.70;102000.23;1888298;76;21519;-64
2021/12/10 08:19:10;;;;;;;4.85;2.30;;;;;;;25.11;32.23;101998.42;1888474;76;21083;-66
2021/12/10 08:21:39;;;;;;;11.38;3.58;;;;;;;25.12;32.16;101992.91;1888462;75;20985;-66
2021/12/10 08:24:08;;;;;;;5.45;2.60;;;;;;;25.31;31.94;101988.25;1888301;76;21119;-65
2021/12/10 08:26:38;;;;;;;3.05;1.95;;;;;;;25.49;31.72;101986.34;1888326;76;21471;-65
2021/12/10 08:29:09;;;;;;;3.98;2.00;;;;;;;25.55;31.38;101986.70;1888477;75;21025;-65
2021/12/10 08:31:39;;;;;;;3.25;1.98;;;;;;;25.88;31.08;101984.02;1888444;76;21013;-64
2021/12/10 08:34:08;;;;;;;4.92;2.10;;;;;;;25.90;30.63;101981.54;1888101;75;21017;-62
2021/12/10 08:36:37;;;;;;;3.20;2.15;;;;;;;26.01;30.68;101971.22;1888305;76;21455;-64
2021/12/10 08:39:09;;;;;;;8.68;2.55;;;;;;;26.17;30.49;101972.97;1871267;76;21008;-65
2021/12/10 08:41:39;;;;;;;6.47;2.20;;;;;;;26.26;30.13;101969.94;1855236;77;21016;-62
2021/12/10 08:44:09;;;;;;;2.62;1.85;;;;;;;26.25;29.45;101967.41;1855039;77;21094;-62
2021/12/10 08:46:40;;;;;;;5.72;2.27;;;;;;;26.17;29.63;101962.17;1854809;76;21024;-62
2021/12/10 08:49:09;;;;;;;3.15;2.00;;;;;;;26.31;29.63;101957.41;1855057;77;21016;-62
2021/12/10 08:51:41;;;;;;;4.45;2.87;;;;;;;26.32;29.10;101958.63;1877085;76;21525;-62
2021/12/10 08:54:12;;;;;;;3.20;2.02;;;;;;;26.30;29.14;101957.91;1888391;76;21017;-62
2021/12/10 08:56:42;;;;;;;3.35;1.52;;;;;;;26.46;29.42;101952.01;1888256;76;21119;-62
2021/12/10 08:59:11;;;;;;;2.42;1.40;;;;;;;26.77;29.25;101960.14;1887587;76;21009;-63
2021/12/10 09:01:43;;;;;;;6.40;1.60;;;;;;;26.29;28.49;101944.55;1888305;75;21029;-64
2021/12/10 09:04:12;;;;;;;6.95;1.55;;;;;;;25.90;29.30;101945.11;1887135;75;21024;-63
2021/12/10 09:06:44;;;;;;;3.15;1.47;;;;;;;25.37;29.07;101947.29;1888330;75;20997;-64
2021/12/10 09:09:15;;;;;;;1.85;1.00;;;;;;;24.97;29.45;101950.55;1888283;75;20997;-63
2021/12/10 09:11:46;;;;;;;2.90;1.27;;;;;;;24.83;29.74;101958.89;1888297;75;21365;-64
2021/12/10 09:14:16;;;;;;;5.08;1.72;;;;;;;24.57;30.09;101948.36;1886003;75;21577;-64
2021/12/10 09:16:46;;;;;;;5.40;1.60;;;;;;;24.53;30.32;101952.28;1888401;76;21021;-63
2021/12/10 09:19:21;;;;;;;4.53;1.37;;;;;;;24.48;30.57;101945.02;1888377;75;21118;-70
2021/12/10 09:21:50;;;;;;;6.42;1.55;;;;;;;24.44;30.62;101942.22;1888198;76;21044;-71
2021/12/10 09:24:21;;;;;;;6.62;1.87;;;;;;;23.97;31.02;101948.11;1887448;76;21491;-64
2021/12/10 09:26:54;;;;;;;3.22;1.42;;;;;;;23.86;31.24;101947.09;1888220;76;21025;-62
2021/12/10 09:29:23;;;;;;;;;;;;;;;23.99;31.49;101951.53;1891093;76;21039;-61
2021/12/10 09:31:52;;;;;;;3.37;1.30;;;;;;;24.41;31.28;101944.64;1888290;76;20121;-62
2021/12/10 09:34:21;;;;;;;2.67;1.40;;;;;;;25.19;30.70;101942.04;1812811;79;21467;-64
2021/12/10 09:36:51;;;;;;;2.77;1.42;;;;;;;25.30;30.24;101938.50;1876228;76;21570;-62
2021/12/10 09:39:22;;;;;;;2.12;1.50;;;;;;;25.22;30.13;101928.32;1876328;76;21037;-61
2021/12/10 09:41:53;;;;;;;3.60;2.05;;;;;;;25.28;30.14;101927.84;1876337;76;21080;-62
2021/12/10 09:44:22;;;;;;;4.90;1.90;;;;;;;25.55;30.16;101925.18;1876307;76;21021;-61
2021/12/10 09:46:52;;;;;;;3.58;1.50;;;;;;;25.80;29.66;101926.17;1876384;76;20994;-63
2021/12/10 09:49:25;;;;;;;5.12;1.27;;;;;;;24.75;30.11;101934.39;1876259;76;21570;-62
2021/12/10 09:51:57;;;;;;;2.22;1.60;;;;;;;24.58;30.57;101923.63;1876357;76;21333;-61
2021/12/10 09:54:29;;;;;;;2.37;1.35;;;;;;;24.58;30.60;101924.48;1876271;76;21531;-62
2021/12/10 09:57:00;;;;;;;6.28;1.30;;;;;;;24.77;30.31;101928.39;1876253;75;21146;-62
2021/12/10 09:59:30;;;;;;;8.05;1.60;;;;;;;24.84;30.13;101920.18;1875469;76;21050;-62
2021/12/10 10:02:02;;;;;;;5.55;1.92;;;;;;;24.81;30.16;101921.80;1876312;76;21481;-62
2021/12/10 10:04:34;;;;;;;3.17;1.80;;;;;;;24.21;31.03;101920.63;1876220;76;21121;-62
2021/12/10 10:07:05;;;;;;;6.03;1.52;;;;;;;24.65;30.80;101914.09;1876207;76;21104;-62
2021/12/10 10:09:34;;;;;;;8.07;1.40;;;;;;;25.34;29.89;101917.91;1875791;76;21026;-62
2021/12/10 10:12:06;;;;;;;5.45;1.37;;;;;;;25.21;29.96;101911.30;1876273;75;21449;-61
2021/12/10 10:14:38;;;;;;;2.47;1.40;;;;;;;25.38;30.06;101903.69;1876212;76;21772;-61
2021/12/10 10:17:08;;;;;;;7.28;1.72;;;;;;;25.58;29.60;101910.07;1875991;76;21022;-62
2021/12/10 10:19:37;;;;;;;3.00;1.30;;;;;;;25.08;29.70;101907.04;1876050;76;20998;-61
2021/12/10 10:22:09;;;;;;;2.52;1.17;;;;;;;24.86;29.81;101911.48;1875983;76;21465;-63
2021/12/10 10:24:38;;;;;;;7.22;1.40;;;;;;;24.27;30.68;101905.38;1875925;76;20993;-62
2021/12/10 10:27:10;;;;;;;3.75;1.32;;;;;;;24.40;30.60;101903.03;1875979;76;21456;-61
2021/12/10 10:29:42;;;;;;;13.50;1.67;;;;;;;24.36;30.25;101901.56;1875701;76;21521;-62
2021/12/10 10:32:14;;;;;;;1.20;0.93;;;;;;;24.34;30.25;101902.19;1876139;75;20993;-61
2021/12/10 10:34:48;;;;;;;6.20;1.40;;;;;;;23.95;30.68;101891.73;1875930;76;21095;-62
2021/12/10 10:37:17;;;;;;;1.77;1.15;;;;;;;23.48;31.68;101905.13;1874317;75;21127;-61
2021/12/10 10:39:48;;;;;;;5.62;1.47;;;;;;;23.40;31.85;101900.80;1875155;76;21457;-62
2021/12/10 10:42:20;;;;;;;6.20;1.27;;;;;;;23.77;31.11;101893.97;1875578;76;21080;-62
2021/12/10 10:44:50;;;;;;;2.75;1.45;;;;;;;23.47;31.45;101899.38;1873906;76;20985;-63
2021/12/10 10:47:24;;;;;;;7.05;1.60;;;;;;;23.44;31.46;101895.59;1875461;76;21014;-64
2021/12/10 10:49:55;;;;;;;0.95;0.85;;;;;;;23.72;31.22;101888.11;1874697;75;21057;-66
2021/12/10 10:52:33;;;;;;;1.20;1.10;;;;;;;24.04;30.88;101879.41;1875692;76;21025;-66
2021/12/10 10:55:14;;;;;;;3.00;2.40;;;;;;;24.21;30.79;101882.95;1875444;76;21546;-68
2021/12/10 10:58:02;;;;;;;2.10;1.40;;;;;;;24.01;30.73;101876.95;1874713;75;21038;-66
2021/12/10 11:00:52;;;;;;;2.22;1.27;;;;;;;23.45;31.29;101883.85;1872070;76;21531;-68
2021/12/10 11:03:18;;;;;;;4.42;1.30;;;;;;;22.67;32.67;101875.70;1830049;76;21095;-63
2021/12/10 11:05:50;;;;;;;3.33;1.05;;;;;;;23.11;32.27;101881.02;1870628;75;21139;-62
2021/12/10 11:08:37;;;;;;;2.85;1.30;;;;;;;23.18;32.19;101879.20;1855930;76;21444;-68
2021/12/10 11:11:09;;;;;;;1.45;0.90;;;;;;;23.28;32.26;101884.28;1864378;76;21036;-62
2021/12/10 11:13:39;;;;;;;5.10;1.30;;;;;;;22.43;33.26;101870.73;1841057;76;21138;-61
2021/12/10 11:16:11;;;;;;;3.08;1.20;;;;;;;22.64;32.93;101869.70;1849406;77;21037;-63
2021/12/10 11:18:52;;;;;;;2.77;1.70;;;;;;;22.52;33.02;101878.13;1856546;77;21052;-64
2021/12/10 11:21:43;;;;;;;14.75;1.75;;;;;;;22.49;33.39;101870.32;1856112;77;21490;-59
2021/12/10 11:24:20;;;;;;;3.77;1.45;;;;;;;22.47;33.61;101889.70;1855971;77;21455;-61
2021/12/10 11:26:52;;;;;;;6.70;2.00;;;;;;;22.50;33.55;101877.38;1855649;77;21487;-59
2021/12/10 11:29:34;;;;;;;18.23;2.25;;;;;;;22.78;33.37;101861.96;1856471;77;20992;-61
2021/12/10 11:32:06;;;;;;;3.57;1.10;;;;;;;22.97;33.18;101875.77;1856906;77;21028;-61
2021/12/10 11:34:53;;;;;;;8.68;1.50;;;;;;;22.74;33.46;101875.63;1876164;76;21432;-61
2021/12/10 11:37:39;;;;;;;4.80;1.42;;;;;;;22.50;33.79;101881.41;1888455;76;21033;-61
2021/12/10 11:40:31;;;;;;;2.20;1.00;;;;;;;22.07;34.02;101879.05;1854196;76;21045;-61
2021/12/10 11:43:04;;;;;;;9.85;1.70;;;;;;;21.86;34.34;101874.22;1888131;76;21024;-60
2021/12/10 11:45:34;;;;;;;2.67;1.10;;;;;;;21.78;34.41;101871.19;1887647;76;21026;-61
2021/12/10 11:48:09;;;;;;;;;;;;;;;21.19;35.35;101871.55;1891087;76;21017;-61
2021/12/10 11:50:39;;;;;;;4.60;1.20;;;;;;;21.14;35.47;101859.81;1888277;76;20164;-60